Wes Sellars — WDF9302 — position and weather

sailwx.info

Track history (hours):
 
Tides and Currents Weather Stations Pressure Air Temp Water Temp Dewpoint Dewpoint Depression Visibility Wind Speed Wind Dir Waves Ship Positions

Wes Sellars

Owner: Florida Marine, LLC, Mandeville, LA. More information available from US FCC via Universal Licensing System and Coast Guard Vessel Documentation Center.

Last reported at 2015-Jul-06 23:18 UTC. Time now 2015-Jul-07 08:56 UTC.
Position N 29°46' W 095°06'.

Length 27 m.

Type: Towing. MMSI: 367503760.

Date/timePositionNaut miles runAvg speedWind from/ knotsBaromVisibWave heightAir tempDewpointWater temp
2015-Jul-06 23:18N 29°46' W 095°06'0 0.0
2015-Jul-06 22:31N 29°46' W 095°06'2 1.7
2015-Jul-06 21:32N 29°47' W 095°04'2 2.0
2015-Jul-06 20:33N 29°45' W 095°04'8 8.1
2015-Jul-06 19:33N 29°39' W 094°58'9 9.3
2015-Jul-06 18:33N 29°31' W 094°53'8 0.3
2015-Jul-05 17:32N 29°23' W 094°53'  
2015-Jul-03 03:07N 29°23' W 094°48'610.0
2015-Jul-03 02:33N 29°28' W 094°51'9 9.1
2015-Jul-03 01:33N 29°36' W 094°56'8 8.4
2015-Jul-03 00:33N 29°43' W 095°01'5 5.0
2015-Jul-02 23:33N 29°47' W 095°04'0 0.3
2015-Jul-02 22:33N 29°47' W 095°04'0 0.0
2015-Jul-02 21:32N 29°47' W 095°04'1 1.0
2015-Jul-02 20:29N 29°46' W 095°05'0 0.0
2015-Jul-02 19:33N 29°46' W 095°05'0 0.0
2015-Jul-02 17:17N 29°46' W 095°05'2 1.5
2015-Jul-02 16:10N 29°46' W 095°06'1 1.5
2015-Jul-02 15:27N 29°47' W 095°06'0 0.0
2015-Jul-01 18:07N 29°46' W 095°06'2 2.8
2015-Jul-01 17:33N 29°45' W 095°06'1 0.1
2015-Jul-01 08:17N 29°46' W 095°06'2 2.1
2015-Jul-01 07:33N 29°47' W 095°04'3 2.6
2015-Jul-01 06:33N 29°45' W 095°06'0 0.0
2015-Jul-01 05:33N 29°45' W 095°06'0 0.0
2015-Jul-01 04:33N 29°45' W 095°06'0 0.0
2015-Jul-01 03:33N 29°45' W 095°06'0 0.0
2015-Jul-01 02:33N 29°45' W 095°06'0 0.0
2015-Jul-01 01:33N 29°45' W 095°06'2 1.6
2015-Jul-01 00:33N 29°46' W 095°06'2 1.6
2015-Jun-30 23:33N 29°45' W 095°06'0 0.0
2015-Jun-30 22:33N 29°45' W 095°06'0 0.0
2015-Jun-30 21:33N 29°45' W 095°06'0 0.0
2015-Jun-30 20:33N 29°45' W 095°06'3 3.4
2015-Jun-30 19:33N 29°47' W 095°04'0 0.3
2015-Jun-30 18:32N 29°47' W 095°04'2 0.2
2015-Jun-30 09:21N 29°46' W 095°06'1 0.3
2015-Jun-30 07:17N 29°46' W 095°06'2 2.3
2015-Jun-30 06:33N 29°46' W 095°05'1 1.4
2015-Jun-30 05:33N 29°47' W 095°04'0 0.0
2015-Jun-30 04:33N 29°47' W 095°04'0 0.0
2015-Jun-30 03:33N 29°47' W 095°04'0 0.0
2015-Jun-30 02:33N 29°47' W 095°04'0 0.0
2015-Jun-30 01:33N 29°47' W 095°04'2 1.9
2015-Jun-30 00:33N 29°46' W 095°05'1 0.2
2015-Jun-29 19:25N 29°46' W 095°06'2 2.5
2015-Jun-29 18:32N 29°47' W 095°04'0 0.1
2015-Jun-29 17:33N 29°47' W 095°04'2 1.8
2015-Jun-29 16:33N 29°46' W 095°05'1 0.0
2015-Jun-28 14:06N 29°46' W 095°06'2 4.2
2015-Jun-28 13:34N 29°47' W 095°04'0 0.0
2015-Jun-28 12:33N 29°47' W 095°04'0 0.0
2015-Jun-28 11:33N 29°47' W 095°04'3 3.3
2015-Jun-28 10:33N 29°45' W 095°06'0 0.0
2015-Jun-28 09:33N 29°45' W 095°06'0 0.0
2015-Jun-28 08:33N 29°45' W 095°06'0 0.0
2015-Jun-28 07:33N 29°45' W 095°06'0 0.0
2015-Jun-28 06:33N 29°45' W 095°06'0 0.0
2015-Jun-28 05:33N 29°45' W 095°06'0 0.0
2015-Jun-28 04:33N 29°45' W 095°06'0 0.0
2015-Jun-28 03:33N 29°45' W 095°06'0 0.0
2015-Jun-28 02:33N 29°45' W 095°06'0 0.0
2015-Jun-28 01:33N 29°45' W 095°06'0 0.0
2015-Jun-28 00:33N 29°45' W 095°06'0 0.0
2015-Jun-27 23:33N 29°45' W 095°06'0 0.0
2015-Jun-27 22:33N 29°45' W 095°06'0 0.0
2015-Jun-27 21:33N 29°45' W 095°06'0 0.0
2015-Jun-27 20:33N 29°45' W 095°06'0 0.0
2015-Jun-27 19:33N 29°45' W 095°06'0 0.0
2015-Jun-27 18:33N 29°45' W 095°06'0 0.0
2015-Jun-27 17:33N 29°45' W 095°06'0 0.0
2015-Jun-27 16:33N 29°45' W 095°06'0 0.0
2015-Jun-27 15:33N 29°45' W 095°06'0 0.0
2015-Jun-27 14:33N 29°45' W 095°06'0 0.0
2015-Jun-27 13:33N 29°45' W 095°06'0 0.0
2015-Jun-27 12:33N 29°45' W 095°06'0 0.0
2015-Jun-27 11:33N 29°45' W 095°06'0 0.0
2015-Jun-27 10:33N 29°45' W 095°06'0 0.0
2015-Jun-27 09:33N 29°45' W 095°06'0 0.0
2015-Jun-27 08:33N 29°45' W 095°06'0 0.0
2015-Jun-27 07:33N 29°45' W 095°06'0 0.0
2015-Jun-27 06:33N 29°45' W 095°06'0 0.0
2015-Jun-27 05:33N 29°45' W 095°06'3 3.0
2015-Jun-27 04:32N 29°47' W 095°04'0 0.3
2015-Jun-27 03:33N 29°47' W 095°04'0 0.0
2015-Jun-27 02:33N 29°47' W 095°04'0 0.0
2015-Jun-27 01:28N 29°47' W 095°04'  
Track history (hours):
 
Tides and Currents Weather Stations Pressure Air Temp Water Temp Dewpoint Dewpoint Depression Visibility Wind Speed Wind Dir Waves Ship Positions

Wes Sellars

Owner: Florida Marine, LLC, Mandeville, LA. More information available from US FCC via Universal Licensing System and Coast Guard Vessel Documentation Center.

Last reported at 2015-Jul-06 23:18 UTC. Time now 2015-Jul-07 08:56 UTC.
Position N 29°46' W 095°06'.

Length 27 m.

Type: Towing. MMSI: 367503760.

Date/timePositionNaut miles runAvg speedWind from/ knotsBaromVisibWave heightAir tempDewpointWater temp
2015-Jul-06 23:18N 29°46' W 095°06'0 0.0
2015-Jul-06 22:31N 29°46' W 095°06'2 1.7
2015-Jul-06 21:32N 29°47' W 095°04'2 2.0
2015-Jul-06 20:33N 29°45' W 095°04'8 8.1
2015-Jul-06 19:33N 29°39' W 094°58'9 9.3
2015-Jul-06 18:33N 29°31' W 094°53'8 0.3
2015-Jul-05 17:32N 29°23' W 094°53'  
2015-Jul-03 03:07N 29°23' W 094°48'610.0
2015-Jul-03 02:33N 29°28' W 094°51'9 9.1
2015-Jul-03 01:33N 29°36' W 094°56'8 8.4
2015-Jul-03 00:33N 29°43' W 095°01'5 5.0
2015-Jul-02 23:33N 29°47' W 095°04'0 0.3
2015-Jul-02 22:33N 29°47' W 095°04'0 0.0
2015-Jul-02 21:32N 29°47' W 095°04'1 1.0
2015-Jul-02 20:29N 29°46' W 095°05'0 0.0
2015-Jul-02 19:33N 29°46' W 095°05'0 0.0
2015-Jul-02 17:17N 29°46' W 095°05'2 1.5
2015-Jul-02 16:10N 29°46' W 095°06'1 1.5
2015-Jul-02 15:27N 29°47' W 095°06'0 0.0
2015-Jul-01 18:07N 29°46' W 095°06'2 2.8
2015-Jul-01 17:33N 29°45' W 095°06'1 0.1
2015-Jul-01 08:17N 29°46' W 095°06'2 2.1
2015-Jul-01 07:33N 29°47' W 095°04'3 2.6
2015-Jul-01 06:33N 29°45' W 095°06'0 0.0
2015-Jul-01 05:33N 29°45' W 095°06'0 0.0
2015-Jul-01 04:33N 29°45' W 095°06'0 0.0
2015-Jul-01 03:33N 29°45' W 095°06'0 0.0
2015-Jul-01 02:33N 29°45' W 095°06'0 0.0
2015-Jul-01 01:33N 29°45' W 095°06'2 1.6
2015-Jul-01 00:33N 29°46' W 095°06'2 1.6
2015-Jun-30 23:33N 29°45' W 095°06'0 0.0
2015-Jun-30 22:33N 29°45' W 095°06'0 0.0
2015-Jun-30 21:33N 29°45' W 095°06'0 0.0
2015-Jun-30 20:33N 29°45' W 095°06'3 3.4
2015-Jun-30 19:33N 29°47' W 095°04'0 0.3
2015-Jun-30 18:32N 29°47' W 095°04'2 0.2
2015-Jun-30 09:21N 29°46' W 095°06'1 0.3
2015-Jun-30 07:17N 29°46' W 095°06'2 2.3
2015-Jun-30 06:33N 29°46' W 095°05'1 1.4
2015-Jun-30 05:33N 29°47' W 095°04'0 0.0
2015-Jun-30 04:33N 29°47' W 095°04'0 0.0
2015-Jun-30 03:33N 29°47' W 095°04'0 0.0
2015-Jun-30 02:33N 29°47' W 095°04'0 0.0
2015-Jun-30 01:33N 29°47' W 095°04'2 1.9
2015-Jun-30 00:33N 29°46' W 095°05'1 0.2
2015-Jun-29 19:25N 29°46' W 095°06'2 2.5
2015-Jun-29 18:32N 29°47' W 095°04'0 0.1
2015-Jun-29 17:33N 29°47' W 095°04'2 1.8
2015-Jun-29 16:33N 29°46' W 095°05'1 0.0
2015-Jun-28 14:06N 29°46' W 095°06'2 4.2
2015-Jun-28 13:34N 29°47' W 095°04'0 0.0
2015-Jun-28 12:33N 29°47' W 095°04'0 0.0
2015-Jun-28 11:33N 29°47' W 095°04'3 3.3
2015-Jun-28 10:33N 29°45' W 095°06'0 0.0
2015-Jun-28 09:33N 29°45' W 095°06'0 0.0
2015-Jun-28 08:33N 29°45' W 095°06'0 0.0
2015-Jun-28 07:33N 29°45' W 095°06'0 0.0
2015-Jun-28 06:33N 29°45' W 095°06'0 0.0
2015-Jun-28 05:33N 29°45' W 095°06'0 0.0
2015-Jun-28 04:33N 29°45' W 095°06'0 0.0
2015-Jun-28 03:33N 29°45' W 095°06'0 0.0
2015-Jun-28 02:33N 29°45' W 095°06'0 0.0
2015-Jun-28 01:33N 29°45' W 095°06'0 0.0
2015-Jun-28 00:33N 29°45' W 095°06'0 0.0
2015-Jun-27 23:33N 29°45' W 095°06'0 0.0
2015-Jun-27 22:33N 29°45' W 095°06'0 0.0
2015-Jun-27 21:33N 29°45' W 095°06'0 0.0
2015-Jun-27 20:33N 29°45' W 095°06'0 0.0
2015-Jun-27 19:33N 29°45' W 095°06'0 0.0
2015-Jun-27 18:33N 29°45' W 095°06'0 0.0
2015-Jun-27 17:33N 29°45' W 095°06'0 0.0
2015-Jun-27 16:33N 29°45' W 095°06'0 0.0
2015-Jun-27 15:33N 29°45' W 095°06'0 0.0
2015-Jun-27 14:33N 29°45' W 095°06'0 0.0
2015-Jun-27 13:33N 29°45' W 095°06'0 0.0
2015-Jun-27 12:33N 29°45' W 095°06'0 0.0
2015-Jun-27 11:33N 29°45' W 095°06'0 0.0
2015-Jun-27 10:33N 29°45' W 095°06'0 0.0
2015-Jun-27 09:33N 29°45' W 095°06'0 0.0
2015-Jun-27 08:33N 29°45' W 095°06'0 0.0
2015-Jun-27 07:33N 29°45' W 095°06'0 0.0
2015-Jun-27 06:33N 29°45' W 095°06'0 0.0
2015-Jun-27 05:33N 29°45' W 095°06'3 3.0
2015-Jun-27 04:32N 29°47' W 095°04'0 0.3
2015-Jun-27 03:33N 29°47' W 095°04'0 0.0
2015-Jun-27 02:33N 29°47' W 095°04'0 0.0
2015-Jun-27 01:28N 29°47' W 095°04'  

Dump ship's entire track history